sensor_id;sensor_type;location;lat;lon;timestamp;P1;durP1;ratioP1;P2;durP2;ratioP2
79543;SDS011;68994;47.176;7.534;2023-09-18T00:01:51;5.75;;;3.15;;
79543;SDS011;68994;47.176;7.534;2023-09-18T00:04:17;4.28;;;2.83;;
79543;SDS011;68994;47.176;7.534;2023-09-18T00:06:44;5.60;;;3.20;;
79543;SDS011;68994;47.176;7.534;2023-09-18T00:09:10;5.63;;;3.33;;
79543;SDS011;68994;47.176;7.534;2023-09-18T00:11:38;5.18;;;3.30;;
79543;SDS011;68994;47.176;7.534;2023-09-18T00:14:05;6.53;;;3.35;;
79543;SDS011;68994;47.176;7.534;2023-09-18T00:16:33;5.65;;;3.63;;
79543;SDS011;68994;47.176;7.534;2023-09-18T00:19:00;4.80;;;3.35;;
79543;SDS011;68994;47.176;7.534;2023-09-18T00:21:27;6.15;;;3.17;;
79543;SDS011;68994;47.176;7.534;2023-09-18T00:23:55;6.38;;;3.00;;
79543;SDS011;68994;47.176;7.534;2023-09-18T00:26:22;5.90;;;3.65;;
79543;SDS011;68994;47.176;7.534;2023-09-18T00:28:48;4.95;;;3.67;;
79543;SDS011;68994;47.176;7.534;2023-09-18T00:31:15;5.35;;;2.95;;
79543;SDS011;68994;47.176;7.534;2023-09-18T00:33:43;4.45;;;2.85;;
79543;SDS011;68994;47.176;7.534;2023-09-18T00:36:09;7.32;;;3.38;;
79543;SDS011;68994;47.176;7.534;2023-09-18T00:38:36;6.28;;;3.65;;
79543;SDS011;68994;47.176;7.534;2023-09-18T00:41:03;7.20;;;3.22;;
79543;SDS011;68994;47.176;7.534;2023-09-18T00:43:29;6.13;;;3.70;;
79543;SDS011;68994;47.176;7.534;2023-09-18T00:45:56;5.40;;;3.28;;
79543;SDS011;68994;47.176;7.534;2023-09-18T00:48:23;10.13;;;5.15;;
79543;SDS011;68994;47.176;7.534;2023-09-18T00:53:19;5.20;;;2.95;;
79543;SDS011;68994;47.176;7.534;2023-09-18T00:55:48;6.93;;;3.60;;
79543;SDS011;68994;47.176;7.534;2023-09-18T00:58:16;6.43;;;3.67;;
79543;SDS011;68994;47.176;7.534;2023-09-18T01:00:44;5.97;;;3.55;;
79543;SDS011;68994;47.176;7.534;2023-09-18T01:03:10;5.90;;;3.90;;
79543;SDS011;68994;47.176;7.534;2023-09-18T01:05:37;5.38;;;3.08;;
79543;SDS011;68994;47.176;7.534;2023-09-18T01:08:05;5.57;;;3.10;;
79543;SDS011;68994;47.176;7.534;2023-09-18T01:10:32;6.65;;;3.53;;
79543;SDS011;68994;47.176;7.534;2023-09-18T01:13:04;8.95;;;4.18;;
79543;SDS011;68994;47.176;7.534;2023-09-18T01:15:40;9.18;;;3.45;;
79543;SDS011;68994;47.176;7.534;2023-09-18T01:18:10;4.93;;;3.33;;
79543;SDS011;68994;47.176;7.534;2023-09-18T01:20:37;6.55;;;4.00;;
79543;SDS011;68994;47.176;7.534;2023-09-18T01:23:05;8.15;;;3.80;;
79543;SDS011;68994;47.176;7.534;2023-09-18T01:25:31;7.15;;;3.55;;
79543;SDS011;68994;47.176;7.534;2023-09-18T01:27:58;8.73;;;3.55;;
79543;SDS011;68994;47.176;7.534;2023-09-18T01:30:25;6.70;;;3.35;;
79543;SDS011;68994;47.176;7.534;2023-09-18T01:32:51;5.93;;;3.60;;
79543;SDS011;68994;47.176;7.534;2023-09-18T01:37:48;7.15;;;2.83;;
79543;SDS011;68994;47.176;7.534;2023-09-18T01:40:17;5.95;;;3.22;;
79543;SDS011;68994;47.176;7.534;2023-09-18T01:42:44;5.47;;;3.83;;
79543;SDS011;68994;47.176;7.534;2023-09-18T01:45:12;5.88;;;3.65;;
79543;SDS011;68994;47.176;7.534;2023-09-18T01:47:39;4.57;;;3.45;;
79543;SDS011;68994;47.176;7.534;2023-09-18T01:50:06;8.80;;;3.60;;
79543;SDS011;68994;47.176;7.534;2023-09-18T01:52:33;5.68;;;3.10;;
79543;SDS011;68994;47.176;7.534;2023-09-18T01:55:00;5.30;;;3.50;;
79543;SDS011;68994;47.176;7.534;2023-09-18T01:57:30;6.50;;;3.00;;
79543;SDS011;68994;47.176;7.534;2023-09-18T01:59:57;7.10;;;3.40;;
79543;SDS011;68994;47.176;7.534;2023-09-18T02:02:24;9.65;;;3.67;;
79543;SDS011;68994;47.176;7.534;2023-09-18T02:04:50;8.00;;;3.38;;
79543;SDS011;68994;47.176;7.534;2023-09-18T02:07:17;6.05;;;3.33;;
79543;SDS011;68994;47.176;7.534;2023-09-18T02:09:43;5.32;;;2.97;;
79543;SDS011;68994;47.176;7.534;2023-09-18T02:12:10;6.60;;;3.30;;
79543;SDS011;68994;47.176;7.534;2023-09-18T02:14:43;9.40;;;3.35;;
79543;SDS011;68994;47.176;7.534;2023-09-18T02:17:10;8.00;;;3.38;;
79543;SDS011;68994;47.176;7.534;2023-09-18T02:19:36;5.95;;;3.75;;
79543;SDS011;68994;47.176;7.534;2023-09-18T02:22:03;8.23;;;2.90;;
79543;SDS011;68994;47.176;7.534;2023-09-18T02:24:31;6.75;;;4.18;;
79543;SDS011;68994;47.176;7.534;2023-09-18T02:26:57;12.57;;;4.10;;
79543;SDS011;68994;47.176;7.534;2023-09-18T02:29:24;6.65;;;3.78;;
79543;SDS011;68994;47.176;7.534;2023-09-18T02:31:52;6.43;;;3.83;;
79543;SDS011;68994;47.176;7.534;2023-09-18T02:34:19;4.85;;;3.28;;
79543;SDS011;68994;47.176;7.534;2023-09-18T02:36:45;5.70;;;3.70;;
79543;SDS011;68994;47.176;7.534;2023-09-18T02:39:12;6.95;;;4.35;;
79543;SDS011;68994;47.176;7.534;2023-09-18T02:41:39;5.43;;;4.13;;
79543;SDS011;68994;47.176;7.534;2023-09-18T02:44:05;6.30;;;4.10;;
79543;SDS011;68994;47.176;7.534;2023-09-18T02:46:32;8.40;;;3.65;;
79543;SDS011;68994;47.176;7.534;2023-09-18T02:49:00;8.65;;;4.03;;
79543;SDS011;68994;47.176;7.534;2023-09-18T02:51:26;9.38;;;3.85;;
79543;SDS011;68994;47.176;7.534;2023-09-18T02:53:53;8.88;;;4.13;;
79543;SDS011;68994;47.176;7.534;2023-09-18T02:56:20;6.15;;;3.58;;
79543;SDS011;68994;47.176;7.534;2023-09-18T02:58:46;8.65;;;5.13;;
79543;SDS011;68994;47.176;7.534;2023-09-18T03:01:13;7.55;;;3.97;;
79543;SDS011;68994;47.176;7.534;2023-09-18T03:03:39;8.07;;;3.75;;
79543;SDS011;68994;47.176;7.534;2023-09-18T03:06:08;9.00;;;4.82;;
79543;SDS011;68994;47.176;7.534;2023-09-18T03:08:34;9.20;;;3.83;;
79543;SDS011;68994;47.176;7.534;2023-09-18T03:11:01;6.20;;;4.35;;
79543;SDS011;68994;47.176;7.534;2023-09-18T03:13:28;8.55;;;3.83;;
79543;SDS011;68994;47.176;7.534;2023-09-18T03:15:55;5.88;;;3.83;;
79543;SDS011;68994;47.176;7.534;2023-09-18T03:18:22;7.10;;;3.83;;
79543;SDS011;68994;47.176;7.534;2023-09-18T03:20:48;5.75;;;4.10;;
79543;SDS011;68994;47.176;7.534;2023-09-18T03:23:16;10.18;;;5.18;;
79543;SDS011;68994;47.176;7.534;2023-09-18T03:25:43;7.57;;;4.75;;
79543;SDS011;68994;47.176;7.534;2023-09-18T03:28:09;6.43;;;4.30;;
79543;SDS011;68994;47.176;7.534;2023-09-18T03:30:36;6.40;;;4.88;;
79543;SDS011;68994;47.176;7.534;2023-09-18T03:33:03;7.88;;;4.45;;
79543;SDS011;68994;47.176;7.534;2023-09-18T03:35:30;7.43;;;4.70;;
79543;SDS011;68994;47.176;7.534;2023-09-18T03:37:58;10.93;;;5.13;;
79543;SDS011;68994;47.176;7.534;2023-09-18T03:40:26;7.90;;;4.32;;
79543;SDS011;68994;47.176;7.534;2023-09-18T03:42:52;6.28;;;4.95;;
79543;SDS011;68994;47.176;7.534;2023-09-18T03:45:19;7.40;;;4.57;;
79543;SDS011;68994;47.176;7.534;2023-09-18T03:47:45;7.25;;;3.83;;
79543;SDS011;68994;47.176;7.534;2023-09-18T03:50:15;6.53;;;4.38;;
79543;SDS011;68994;47.176;7.534;2023-09-18T03:52:41;6.80;;;4.25;;
79543;SDS011;68994;47.176;7.534;2023-09-18T03:55:08;7.13;;;4.93;;
79543;SDS011;68994;47.176;7.534;2023-09-18T03:57:36;7.28;;;4.53;;
79543;SDS011;68994;47.176;7.534;2023-09-18T04:00:03;7.72;;;4.72;;
79543;SDS011;68994;47.176;7.534;2023-09-18T04:02:32;6.07;;;4.20;;
79543;SDS011;68994;47.176;7.534;2023-09-18T04:04:59;7.40;;;4.38;;
79543;SDS011;68994;47.176;7.534;2023-09-18T04:07:25;6.57;;;3.95;;
79543;SDS011;68994;47.176;7.534;2023-09-18T04:09:52;6.97;;;4.40;;
79543;SDS011;68994;47.176;7.534;2023-09-18T04:12:19;11.55;;;3.92;;
79543;SDS011;68994;47.176;7.534;2023-09-18T04:14:47;5.18;;;4.38;;
79543;SDS011;68994;47.176;7.534;2023-09-18T04:17:13;6.55;;;4.53;;
79543;SDS011;68994;47.176;7.534;2023-09-18T04:19:40;7.40;;;4.35;;
79543;SDS011;68994;47.176;7.534;2023-09-18T04:22:08;6.32;;;4.50;;
79543;SDS011;68994;47.176;7.534;2023-09-18T04:24:35;7.50;;;3.97;;
79543;SDS011;68994;47.176;7.534;2023-09-18T04:27:01;6.38;;;3.70;;
79543;SDS011;68994;47.176;7.534;2023-09-18T04:29:28;7.47;;;3.95;;
79543;SDS011;68994;47.176;7.534;2023-09-18T04:31:56;10.50;;;3.90;;
79543;SDS011;68994;47.176;7.534;2023-09-18T04:34:23;7.00;;;4.45;;
79543;SDS011;68994;47.176;7.534;2023-09-18T04:36:49;11.20;;;4.93;;
79543;SDS011;68994;47.176;7.534;2023-09-18T04:39:16;8.50;;;4.47;;
79543;SDS011;68994;47.176;7.534;2023-09-18T04:41:42;10.50;;;4.68;;
79543;SDS011;68994;47.176;7.534;2023-09-18T04:44:10;6.65;;;4.28;;
79543;SDS011;68994;47.176;7.534;2023-09-18T04:46:37;6.82;;;4.82;;
79543;SDS011;68994;47.176;7.534;2023-09-18T04:49:05;6.30;;;3.85;;
79543;SDS011;68994;47.176;7.534;2023-09-18T04:51:32;5.75;;;4.28;;
79543;SDS011;68994;47.176;7.534;2023-09-18T04:53:59;8.43;;;3.97;;
79543;SDS011;68994;47.176;7.534;2023-09-18T04:56:25;7.38;;;3.78;;
79543;SDS011;68994;47.176;7.534;2023-09-18T04:58:52;5.72;;;4.18;;
79543;SDS011;68994;47.176;7.534;2023-09-18T05:01:19;6.78;;;3.97;;
79543;SDS011;68994;47.176;7.534;2023-09-18T05:03:45;5.55;;;3.95;;
79543;SDS011;68994;47.176;7.534;2023-09-18T05:06:15;6.68;;;4.28;;
79543;SDS011;68994;47.176;7.534;2023-09-18T05:08:42;8.45;;;4.07;;
79543;SDS011;68994;47.176;7.534;2023-09-18T05:11:09;7.90;;;4.18;;
79543;SDS011;68994;47.176;7.534;2023-09-18T05:13:36;6.68;;;4.55;;
79543;SDS011;68994;47.176;7.534;2023-09-18T05:16:02;6.57;;;4.22;;
79543;SDS011;68994;47.176;7.534;2023-09-18T05:18:29;9.40;;;4.20;;
79543;SDS011;68994;47.176;7.534;2023-09-18T05:20:56;8.65;;;4.45;;
79543;SDS011;68994;47.176;7.534;2023-09-18T05:23:24;7.88;;;4.28;;
79543;SDS011;68994;47.176;7.534;2023-09-18T05:25:51;8.75;;;5.22;;
79543;SDS011;68994;47.176;7.534;2023-09-18T05:28:18;9.25;;;4.85;;
79543;SDS011;68994;47.176;7.534;2023-09-18T05:30:44;10.63;;;4.45;;
79543;SDS011;68994;47.176;7.534;2023-09-18T05:33:11;9.00;;;4.88;;
79543;SDS011;68994;47.176;7.534;2023-09-18T05:35:39;10.75;;;4.35;;
79543;SDS011;68994;47.176;7.534;2023-09-18T05:38:07;8.38;;;4.25;;
79543;SDS011;68994;47.176;7.534;2023-09-18T05:40:35;11.38;;;4.72;;
79543;SDS011;68994;47.176;7.534;2023-09-18T05:43:01;10.05;;;4.47;;
79543;SDS011;68994;47.176;7.534;2023-09-18T05:45:28;10.45;;;4.20;;
79543;SDS011;68994;47.176;7.534;2023-09-18T05:47:56;5.45;;;4.07;;
79543;SDS011;68994;47.176;7.534;2023-09-18T05:50:28;11.50;;;4.30;;
79543;SDS011;68994;47.176;7.534;2023-09-18T05:52:56;9.60;;;3.63;;
79543;SDS011;68994;47.176;7.534;2023-09-18T05:55:24;10.75;;;3.65;;
79543;SDS011;68994;47.176;7.534;2023-09-18T05:57:53;11.65;;;4.68;;
79543;SDS011;68994;47.176;7.534;2023-09-18T06:00:19;9.90;;;5.85;;
79543;SDS011;68994;47.176;7.534;2023-09-18T06:02:47;10.70;;;5.68;;
79543;SDS011;68994;47.176;7.534;2023-09-18T06:05:13;6.07;;;4.57;;
79543;SDS011;68994;47.176;7.534;2023-09-18T06:07:42;12.00;;;4.90;;
79543;SDS011;68994;47.176;7.534;2023-09-18T06:10:09;12.75;;;5.43;;
79543;SDS011;68994;47.176;7.534;2023-09-18T06:12:37;11.88;;;5.07;;
79543;SDS011;68994;47.176;7.534;2023-09-18T06:15:06;11.55;;;5.50;;
79543;SDS011;68994;47.176;7.534;2023-09-18T06:17:35;12.20;;;5.05;;
79543;SDS011;68994;47.176;7.534;2023-09-18T06:20:02;7.90;;;4.40;;
79543;SDS011;68994;47.176;7.534;2023-09-18T06:22:29;8.10;;;4.57;;
79543;SDS011;68994;47.176;7.534;2023-09-18T06:24:56;7.90;;;4.65;;
79543;SDS011;68994;47.176;7.534;2023-09-18T06:27:22;7.93;;;4.88;;
79543;SDS011;68994;47.176;7.534;2023-09-18T06:29:49;8.65;;;5.13;;
79543;SDS011;68994;47.176;7.534;2023-09-18T06:32:17;6.65;;;4.57;;
79543;SDS011;68994;47.176;7.534;2023-09-18T06:34:43;8.02;;;3.70;;
79543;SDS011;68994;47.176;7.534;2023-09-18T06:37:12;8.00;;;5.00;;
79543;SDS011;68994;47.176;7.534;2023-09-18T06:39:39;8.60;;;5.53;;
79543;SDS011;68994;47.176;7.534;2023-09-18T06:42:06;11.48;;;5.70;;
79543;SDS011;68994;47.176;7.534;2023-09-18T06:44:32;6.60;;;4.63;;
79543;SDS011;68994;47.176;7.534;2023-09-18T06:46:59;11.07;;;5.18;;
79543;SDS011;68994;47.176;7.534;2023-09-18T06:49:27;11.07;;;5.25;;
79543;SDS011;68994;47.176;7.534;2023-09-18T06:51:53;7.10;;;4.57;;
79543;SDS011;68994;47.176;7.534;2023-09-18T06:54:20;9.38;;;5.15;;
79543;SDS011;68994;47.176;7.534;2023-09-18T06:56:47;8.02;;;3.90;;
79543;SDS011;68994;47.176;7.534;2023-09-18T06:59:13;6.53;;;3.45;;
79543;SDS011;68994;47.176;7.534;2023-09-18T07:01:40;7.75;;;4.55;;
79543;SDS011;68994;47.176;7.534;2023-09-18T07:04:07;5.18;;;3.80;;
79543;SDS011;68994;47.176;7.534;2023-09-18T07:06:35;9.27;;;4.22;;
79543;SDS011;68994;47.176;7.534;2023-09-18T07:09:02;6.72;;;3.75;;
79543;SDS011;68994;47.176;7.534;2023-09-18T07:11:31;7.10;;;3.95;;
79543;SDS011;68994;47.176;7.534;2023-09-18T07:13:58;7.00;;;4.53;;
79543;SDS011;68994;47.176;7.534;2023-09-18T07:16:26;8.88;;;5.78;;
79543;SDS011;68994;47.176;7.534;2023-09-18T07:18:52;11.55;;;4.72;;
79543;SDS011;68994;47.176;7.534;2023-09-18T07:21:19;10.43;;;3.97;;
79543;SDS011;68994;47.176;7.534;2023-09-18T07:23:47;8.65;;;5.05;;
79543;SDS011;68994;47.176;7.534;2023-09-18T07:26:14;7.05;;;4.07;;
79543;SDS011;68994;47.176;7.534;2023-09-18T07:28:40;12.38;;;3.80;;
79543;SDS011;68994;47.176;7.534;2023-09-18T07:31:09;7.35;;;4.10;;
79543;SDS011;68994;47.176;7.534;2023-09-18T07:33:39;9.13;;;3.55;;
79543;SDS011;68994;47.176;7.534;2023-09-18T07:36:06;7.72;;;4.18;;
79543;SDS011;68994;47.176;7.534;2023-09-18T07:38:32;8.93;;;3.53;;
79543;SDS011;68994;47.176;7.534;2023-09-18T07:41:00;10.38;;;3.70;;
79543;SDS011;68994;47.176;7.534;2023-09-18T07:43:27;6.55;;;2.90;;
79543;SDS011;68994;47.176;7.534;2023-09-18T07:45:53;4.50;;;2.78;;
79543;SDS011;68994;47.176;7.534;2023-09-18T07:48:21;8.13;;;2.65;;
79543;SDS011;68994;47.176;7.534;2023-09-18T07:50:48;7.65;;;3.13;;
79543;SDS011;68994;47.176;7.534;2023-09-18T07:53:15;9.23;;;3.05;;
79543;SDS011;68994;47.176;7.534;2023-09-18T07:55:42;7.03;;;3.05;;
79543;SDS011;68994;47.176;7.534;2023-09-18T07:58:10;5.53;;;2.55;;
79543;SDS011;68994;47.176;7.534;2023-09-18T08:00:38;6.75;;;2.42;;
79543;SDS011;68994;47.176;7.534;2023-09-18T08:03:05;3.08;;;1.70;;
79543;SDS011;68994;47.176;7.534;2023-09-18T08:05:32;5.70;;;2.00;;
79543;SDS011;68994;47.176;7.534;2023-09-18T08:07:59;3.63;;;2.17;;
79543;SDS011;68994;47.176;7.534;2023-09-18T08:10:26;4.65;;;2.08;;
79543;SDS011;68994;47.176;7.534;2023-09-18T08:12:52;4.13;;;2.17;;
79543;SDS011;68994;47.176;7.534;2023-09-18T08:15:21;3.53;;;2.08;;
79543;SDS011;68994;47.176;7.534;2023-09-18T08:17:48;2.92;;;1.83;;
79543;SDS011;68994;47.176;7.534;2023-09-18T08:20:15;2.80;;;1.77;;
79543;SDS011;68994;47.176;7.534;2023-09-18T08:22:41;2.72;;;1.50;;
79543;SDS011;68994;47.176;7.534;2023-09-18T08:25:09;3.65;;;1.67;;
79543;SDS011;68994;47.176;7.534;2023-09-18T08:27:36;3.70;;;2.22;;
79543;SDS011;68994;47.176;7.534;2023-09-18T08:30:05;3.92;;;1.65;;
79543;SDS011;68994;47.176;7.534;2023-09-18T08:32:34;3.22;;;1.67;;
79543;SDS011;68994;47.176;7.534;2023-09-18T08:35:00;4.32;;;1.95;;
79543;SDS011;68994;47.176;7.534;2023-09-18T08:37:27;9.98;;;2.20;;
79543;SDS011;68994;47.176;7.534;2023-09-18T08:39:54;4.53;;;1.88;;
79543;SDS011;68994;47.176;7.534;2023-09-18T08:42:20;3.25;;;1.95;;
79543;SDS011;68994;47.176;7.534;2023-09-18T08:44:49;2.90;;;1.92;;
79543;SDS011;68994;47.176;7.534;2023-09-18T08:47:18;6.10;;;2.40;;
79543;SDS011;68994;47.176;7.534;2023-09-18T08:49:46;4.70;;;2.42;;
79543;SDS011;68994;47.176;7.534;2023-09-18T08:52:15;4.00;;;1.90;;
79543;SDS011;68994;47.176;7.534;2023-09-18T08:54:42;4.85;;;2.15;;
79543;SDS011;68994;47.176;7.534;2023-09-18T08:57:09;3.85;;;1.85;;
79543;SDS011;68994;47.176;7.534;2023-09-18T08:59:36;3.15;;;1.77;;
79543;SDS011;68994;47.176;7.534;2023-09-18T09:02:05;3.67;;;2.10;;
79543;SDS011;68994;47.176;7.534;2023-09-18T09:04:35;2.53;;;2.08;;
79543;SDS011;68994;47.176;7.534;2023-09-18T09:07:03;4.47;;;1.75;;
79543;SDS011;68994;47.176;7.534;2023-09-18T09:09:31;2.97;;;1.50;;
79543;SDS011;68994;47.176;7.534;2023-09-18T09:11:58;3.17;;;1.75;;
79543;SDS011;68994;47.176;7.534;2023-09-18T09:14:24;3.38;;;2.10;;
79543;SDS011;68994;47.176;7.534;2023-09-18T09:16:54;3.38;;;1.75;;
79543;SDS011;68994;47.176;7.534;2023-09-18T09:19:28;4.82;;;1.70;;
79543;SDS011;68994;47.176;7.534;2023-09-18T09:24:36;3.25;;;1.60;;
79543;SDS011;68994;47.176;7.534;2023-09-18T09:27:04;3.55;;;1.70;;
79543;SDS011;68994;47.176;7.534;2023-09-18T09:29:30;2.85;;;1.90;;
79543;SDS011;68994;47.176;7.534;2023-09-18T09:32:00;4.60;;;1.77;;
79543;SDS011;68994;47.176;7.534;2023-09-18T09:37:04;2.92;;;1.75;;
79543;SDS011;68994;47.176;7.534;2023-09-18T09:39:31;3.10;;;1.83;;
79543;SDS011;68994;47.176;7.534;2023-09-18T09:42:00;4.72;;;1.70;;
79543;SDS011;68994;47.176;7.534;2023-09-18T09:44:31;2.55;;;1.70;;
79543;SDS011;68994;47.176;7.534;2023-09-18T09:46:58;5.78;;;1.80;;
79543;SDS011;68994;47.176;7.534;2023-09-18T09:49:25;3.10;;;1.63;;
79543;SDS011;68994;47.176;7.534;2023-09-18T09:51:53;3.38;;;1.83;;
79543;SDS011;68994;47.176;7.534;2023-09-18T09:54:31;4.00;;;2.00;;
79543;SDS011;68994;47.176;7.534;2023-09-18T09:57:00;4.53;;;2.22;;
79543;SDS011;68994;47.176;7.534;2023-09-18T09:59:29;6.00;;;2.53;;
79543;SDS011;68994;47.176;7.534;2023-09-18T10:01:58;4.57;;;2.53;;
79543;SDS011;68994;47.176;7.534;2023-09-18T10:04:25;8.98;;;2.22;;
79543;SDS011;68994;47.176;7.534;2023-09-18T10:06:54;4.15;;;2.03;;
79543;SDS011;68994;47.176;7.534;2023-09-18T10:09:25;5.43;;;2.88;;
79543;SDS011;68994;47.176;7.534;2023-09-18T10:11:54;3.17;;;1.77;;
79543;SDS011;68994;47.176;7.534;2023-09-18T10:14:28;2.92;;;1.65;;
79543;SDS011;68994;47.176;7.534;2023-09-18T10:16:57;3.70;;;1.70;;
79543;SDS011;68994;47.176;7.534;2023-09-18T10:19:32;4.07;;;2.67;;
79543;SDS011;68994;47.176;7.534;2023-09-18T10:24:36;4.55;;;1.85;;
79543;SDS011;68994;47.176;7.534;2023-09-18T10:27:06;3.63;;;2.22;;
79543;SDS011;68994;47.176;7.534;2023-09-18T10:29:35;3.80;;;2.58;;
79543;SDS011;68994;47.176;7.534;2023-09-18T10:32:04;2.67;;;1.90;;
79543;SDS011;68994;47.176;7.534;2023-09-18T10:34:33;4.50;;;1.95;;
79543;SDS011;68994;47.176;7.534;2023-09-18T10:37:01;3.13;;;1.67;;
79543;SDS011;68994;47.176;7.534;2023-09-18T10:39:31;4.13;;;1.85;;
79543;SDS011;68994;47.176;7.534;2023-09-18T10:42:01;3.67;;;1.73;;
79543;SDS011;68994;47.176;7.534;2023-09-18T10:44:29;3.90;;;1.65;;
79543;SDS011;68994;47.176;7.534;2023-09-18T10:46:58;4.65;;;1.90;;
79543;SDS011;68994;47.176;7.534;2023-09-18T10:49:27;2.97;;;1.80;;
79543;SDS011;68994;47.176;7.534;2023-09-18T10:51:54;3.05;;;1.90;;
79543;SDS011;68994;47.176;7.534;2023-09-18T10:54:23;4.90;;;2.42;;
79543;SDS011;68994;47.176;7.534;2023-09-18T10:56:51;2.60;;;1.80;;
79543;SDS011;68994;47.176;7.534;2023-09-18T10:59:19;3.05;;;1.60;;
79543;SDS011;68994;47.176;7.534;2023-09-18T11:01:46;3.20;;;1.83;;
79543;SDS011;68994;47.176;7.534;2023-09-18T11:04:17;4.25;;;2.03;;
79543;SDS011;68994;47.176;7.534;2023-09-18T11:07:04;3.00;;;1.85;;
79543;SDS011;68994;47.176;7.534;2023-09-18T11:09:31;4.03;;;1.52;;
79543;SDS011;68994;47.176;7.534;2023-09-18T11:12:06;5.03;;;1.63;;
79543;SDS011;68994;47.176;7.534;2023-09-18T11:14:41;5.57;;;1.70;;
79543;SDS011;68994;47.176;7.534;2023-09-18T11:20:07;2.88;;;1.95;;
79543;SDS011;68994;47.176;7.534;2023-09-18T11:22:36;4.13;;;1.90;;
79543;SDS011;68994;47.176;7.534;2023-09-18T11:28:02;4.35;;;2.40;;
79543;SDS011;68994;47.176;7.534;2023-09-18T11:30:31;3.72;;;2.15;;
79543;SDS011;68994;47.176;7.534;2023-09-18T11:33:00;2.42;;;1.63;;
79543;SDS011;68994;47.176;7.534;2023-09-18T11:38:05;3.60;;;1.80;;
79543;SDS011;68994;47.176;7.534;2023-09-18T11:40:35;3.38;;;1.92;;
79543;SDS011;68994;47.176;7.534;2023-09-18T11:43:20;4.65;;;1.70;;
79543;SDS011;68994;47.176;7.534;2023-09-18T11:45:52;3.75;;;1.80;;
79543;SDS011;68994;47.176;7.534;2023-09-18T11:48:20;3.05;;;1.90;;
79543;SDS011;68994;47.176;7.534;2023-09-18T11:50:52;4.40;;;2.47;;
79543;SDS011;68994;47.176;7.534;2023-09-18T11:53:19;2.88;;;2.17;;
79543;SDS011;68994;47.176;7.534;2023-09-18T11:55:46;3.88;;;2.35;;
79543;SDS011;68994;47.176;7.534;2023-09-18T11:58:13;3.30;;;1.55;;
79543;SDS011;68994;47.176;7.534;2023-09-18T12:00:40;4.47;;;2.17;;
79543;SDS011;68994;47.176;7.534;2023-09-18T12:03:15;3.78;;;1.83;;
79543;SDS011;68994;47.176;7.534;2023-09-18T12:05:49;2.33;;;1.55;;
79543;SDS011;68994;47.176;7.534;2023-09-18T12:08:20;4.32;;;2.70;;
79543;SDS011;68994;47.176;7.534;2023-09-18T12:10:48;6.45;;;2.00;;
79543;SDS011;68994;47.176;7.534;2023-09-18T12:13:16;3.20;;;2.53;;
79543;SDS011;68994;47.176;7.534;2023-09-18T12:15:43;2.90;;;1.98;;
79543;SDS011;68994;47.176;7.534;2023-09-18T12:18:10;3.58;;;1.98;;
79543;SDS011;68994;47.176;7.534;2023-09-18T12:20:38;4.70;;;1.63;;
79543;SDS011;68994;47.176;7.534;2023-09-18T12:23:12;2.40;;;1.73;;
79543;SDS011;68994;47.176;7.534;2023-09-18T12:25:38;2.40;;;1.70;;
79543;SDS011;68994;47.176;7.534;2023-09-18T12:28:06;3.00;;;1.52;;
79543;SDS011;68994;47.176;7.534;2023-09-18T12:35:28;3.97;;;1.65;;
79543;SDS011;68994;47.176;7.534;2023-09-18T12:37:55;2.45;;;1.75;;
79543;SDS011;68994;47.176;7.534;2023-09-18T12:40:24;2.58;;;2.05;;
79543;SDS011;68994;47.176;7.534;2023-09-18T12:42:51;2.92;;;1.83;;
79543;SDS011;68994;47.176;7.534;2023-09-18T12:45:20;2.08;;;1.35;;
79543;SDS011;68994;47.176;7.534;2023-09-18T12:47:46;4.75;;;1.85;;
79543;SDS011;68994;47.176;7.534;2023-09-18T12:50:14;2.72;;;1.67;;
79543;SDS011;68994;47.176;7.534;2023-09-18T12:52:40;3.53;;;1.85;;
79543;SDS011;68994;47.176;7.534;2023-09-18T12:55:07;4.10;;;1.95;;
79543;SDS011;68994;47.176;7.534;2023-09-18T13:00:09;2.75;;;1.50;;
79543;SDS011;68994;47.176;7.534;2023-09-18T13:02:37;4.35;;;2.03;;
79543;SDS011;68994;47.176;7.534;2023-09-18T13:05:04;2.88;;;1.85;;
79543;SDS011;68994;47.176;7.534;2023-09-18T13:07:38;2.90;;;2.08;;
79543;SDS011;68994;47.176;7.534;2023-09-18T13:10:10;3.22;;;1.90;;
79543;SDS011;68994;47.176;7.534;2023-09-18T13:12:40;2.90;;;1.90;;
79543;SDS011;68994;47.176;7.534;2023-09-18T13:15:08;3.63;;;1.92;;
79543;SDS011;68994;47.176;7.534;2023-09-18T13:17:37;3.22;;;1.50;;
79543;SDS011;68994;47.176;7.534;2023-09-18T13:20:12;2.55;;;1.73;;
79543;SDS011;68994;47.176;7.534;2023-09-18T13:22:40;4.55;;;1.90;;
79543;SDS011;68994;47.176;7.534;2023-09-18T13:25:08;5.18;;;1.70;;
79543;SDS011;68994;47.176;7.534;2023-09-18T13:27:36;6.05;;;2.33;;
79543;SDS011;68994;47.176;7.534;2023-09-18T13:30:05;3.78;;;1.85;;
79543;SDS011;68994;47.176;7.534;2023-09-18T13:32:34;4.65;;;1.95;;
79543;SDS011;68994;47.176;7.534;2023-09-18T13:35:01;3.22;;;1.77;;
79543;SDS011;68994;47.176;7.534;2023-09-18T13:37:30;4.03;;;1.85;;
79543;SDS011;68994;47.176;7.534;2023-09-18T13:39:57;3.13;;;1.70;;
79543;SDS011;68994;47.176;7.534;2023-09-18T13:42:26;3.45;;;1.95;;
79543;SDS011;68994;47.176;7.534;2023-09-18T13:44:54;5.68;;;2.28;;
79543;SDS011;68994;47.176;7.534;2023-09-18T13:47:22;3.25;;;1.40;;
79543;SDS011;68994;47.176;7.534;2023-09-18T13:49:49;3.70;;;2.13;;
79543;SDS011;68994;47.176;7.534;2023-09-18T13:52:16;2.95;;;1.63;;
79543;SDS011;68994;47.176;7.534;2023-09-18T13:54:45;3.45;;;1.95;;
79543;SDS011;68994;47.176;7.534;2023-09-18T13:57:16;3.38;;;1.65;;
79543;SDS011;68994;47.176;7.534;2023-09-18T13:59:43;3.85;;;1.88;;
79543;SDS011;68994;47.176;7.534;2023-09-18T14:02:10;3.22;;;1.65;;
79543;SDS011;68994;47.176;7.534;2023-09-18T14:04:38;4.03;;;1.77;;
79543;SDS011;68994;47.176;7.534;2023-09-18T14:07:05;3.00;;;1.70;;
79543;SDS011;68994;47.176;7.534;2023-09-18T14:09:32;2.95;;;1.92;;
79543;SDS011;68994;47.176;7.534;2023-09-18T14:11:58;5.03;;;1.90;;
79543;SDS011;68994;47.176;7.534;2023-09-18T14:14:25;2.88;;;2.00;;
79543;SDS011;68994;47.176;7.534;2023-09-18T14:16:52;5.07;;;2.13;;
79543;SDS011;68994;47.176;7.534;2023-09-18T14:19:18;6.03;;;2.33;;
79543;SDS011;68994;47.176;7.534;2023-09-18T14:21:47;3.72;;;2.05;;
79543;SDS011;68994;47.176;7.534;2023-09-18T14:24:14;4.40;;;2.40;;
79543;SDS011;68994;47.176;7.534;2023-09-18T14:26:43;3.05;;;1.70;;
79543;SDS011;68994;47.176;7.534;2023-09-18T14:29:09;2.63;;;1.33;;
79543;SDS011;68994;47.176;7.534;2023-09-18T14:31:37;4.00;;;1.98;;
79543;SDS011;68994;47.176;7.534;2023-09-18T14:34:03;3.92;;;2.13;;
79543;SDS011;68994;47.176;7.534;2023-09-18T14:36:30;3.42;;;2.20;;
79543;SDS011;68994;47.176;7.534;2023-09-18T14:38:59;3.38;;;1.65;;
79543;SDS011;68994;47.176;7.534;2023-09-18T14:41:26;3.58;;;2.30;;
79543;SDS011;68994;47.176;7.534;2023-09-18T14:43:53;3.30;;;2.08;;
79543;SDS011;68994;47.176;7.534;2023-09-18T14:46:19;3.78;;;1.50;;
79543;SDS011;68994;47.176;7.534;2023-09-18T14:48:47;3.38;;;1.85;;
79543;SDS011;68994;47.176;7.534;2023-09-18T14:51:14;3.25;;;1.70;;
79543;SDS011;68994;47.176;7.534;2023-09-18T14:53:41;4.00;;;1.70;;
79543;SDS011;68994;47.176;7.534;2023-09-18T14:56:08;4.85;;;2.47;;
79543;SDS011;68994;47.176;7.534;2023-09-18T14:58:35;4.95;;;1.98;;
79543;SDS011;68994;47.176;7.534;2023-09-18T15:01:02;3.25;;;1.88;;
79543;SDS011;68994;47.176;7.534;2023-09-18T15:03:28;2.70;;;1.65;;
79543;SDS011;68994;47.176;7.534;2023-09-18T15:05:55;2.95;;;2.03;;
79543;SDS011;68994;47.176;7.534;2023-09-18T15:08:22;3.47;;;1.90;;
79543;SDS011;68994;47.176;7.534;2023-09-18T15:10:48;3.30;;;1.95;;
79543;SDS011;68994;47.176;7.534;2023-09-18T15:13:16;3.30;;;1.80;;
79543;SDS011;68994;47.176;7.534;2023-09-18T15:15:43;4.18;;;2.00;;
79543;SDS011;68994;47.176;7.534;2023-09-18T15:20:37;5.47;;;1.90;;